createdAt,value
2023-03-15T00:03:25.597Z,1.00
2023-03-15T00:08:28.359Z,1.17
2023-03-15T00:13:32.136Z,1.25
2023-03-15T00:18:36.271Z,0.90
2023-03-15T00:23:40.644Z,0.93
2023-03-15T00:28:47.928Z,1.13
2023-03-15T00:33:54.732Z,1.00
2023-03-15T00:38:58.911Z,1.08
2023-03-15T00:44:01.847Z,0.93
2023-03-15T00:49:07.105Z,1.08
2023-03-15T00:54:13.885Z,1.00
2023-03-15T00:59:16.754Z,1.10
2023-03-15T01:04:21.065Z,1.30
2023-03-15T01:09:23.860Z,1.33
2023-03-15T01:14:26.674Z,1.50
2023-03-15T01:19:30.851Z,1.60
2023-03-15T01:24:33.687Z,1.38
2023-03-15T01:29:36.607Z,1.50
2023-03-15T01:34:43.196Z,1.70
2023-03-15T01:39:46.562Z,1.73
2023-03-15T01:44:52.300Z,2.00
2023-03-15T01:50:02.593Z,2.00
2023-03-15T01:55:10.133Z,1.70
2023-03-15T02:00:20.276Z,1.67
2023-03-15T02:05:36.895Z,1.67
2023-03-15T02:10:44.492Z,1.80
2023-03-15T02:15:48.729Z,1.52
2023-03-15T02:21:09.478Z,1.73
2023-03-15T02:26:22.025Z,1.40
2023-03-15T02:31:26.282Z,2.25
2023-03-15T02:36:31.960Z,1.45
2023-03-15T02:41:40.220Z,1.60
2023-03-15T02:46:47.034Z,1.63
2023-03-15T02:51:49.834Z,1.85
2023-03-15T02:56:53.324Z,1.50
2023-03-15T03:01:57.447Z,2.22
2023-03-15T03:07:00.663Z,2.10
2023-03-15T03:12:13.032Z,1.92
2023-03-15T03:17:17.380Z,1.90
2023-03-15T03:22:24.438Z,2.20
2023-03-15T03:27:27.293Z,1.80
2023-03-15T03:32:32.046Z,1.70
2023-03-15T03:37:35.821Z,1.70
2023-03-15T03:42:47.140Z,2.00
2023-03-15T03:47:52.833Z,1.85
2023-03-15T03:52:56.233Z,1.80
2023-03-15T03:58:03.507Z,1.98
2023-03-15T04:03:27.376Z,2.10
2023-03-15T04:08:38.314Z,2.28
2023-03-15T04:13:42.621Z,1.85
2023-03-15T04:18:47.769Z,2.55
2023-03-15T04:23:50.692Z,1.70
2023-03-15T04:29:14.501Z,2.00
2023-03-15T04:34:38.677Z,2.40
2023-03-15T04:39:53.370Z,3.30
2023-03-15T04:45:19.317Z,3.58
2023-03-15T04:50:42.045Z,3.58
2023-03-15T04:56:10.806Z,3.60
2023-03-15T05:01:14.780Z,3.92
2023-03-15T05:06:32.875Z,4.43
2023-03-15T05:11:49.182Z,3.70
2023-03-15T05:17:10.871Z,3.95
2023-03-15T05:22:45.620Z,4.15
2023-03-15T05:28:07.079Z,3.88
2023-03-15T05:33:17.983Z,4.22
2023-03-15T05:39:03.077Z,4.10
2023-03-15T05:44:33.554Z,3.55
2023-03-15T05:49:57.772Z,4.57
2023-03-15T05:55:20.402Z,4.43
2023-03-15T06:00:33.291Z,4.85
2023-03-15T06:05:42.770Z,4.70
2023-03-15T06:10:52.090Z,4.82
2023-03-15T06:15:54.906Z,5.05
2023-03-15T06:20:58.237Z,4.65
2023-03-15T06:26:02.494Z,6.28
2023-03-15T06:31:09.164Z,4.95
2023-03-15T06:36:19.175Z,5.03
2023-03-15T06:41:23.419Z,4.70
2023-03-15T06:46:31.986Z,4.63
2023-03-15T06:51:35.008Z,4.43
2023-03-15T06:56:39.223Z,4.35
2023-03-15T07:01:42.093Z,4.03
2023-03-15T07:06:44.854Z,3.97
2023-03-15T07:11:49.144Z,3.63
2023-03-15T07:16:51.888Z,3.47
2023-03-15T07:21:54.588Z,2.70
2023-03-15T07:26:58.725Z,3.33
2023-03-15T07:32:01.623Z,2.70
2023-03-15T07:37:04.627Z,2.13
2023-03-15T07:42:09.582Z,2.63
2023-03-15T07:47:17.390Z,2.63
2023-03-15T07:52:21.353Z,2.95
2023-03-15T07:57:27.684Z,2.63
2023-03-15T08:02:31.464Z,2.30
2023-03-15T08:07:34.170Z,2.97
2023-03-15T08:12:39.936Z,1.90
2023-03-15T08:17:43.525Z,1.70
2023-03-15T08:22:46.547Z,1.88
2023-03-15T08:27:51.168Z,1.70
2023-03-15T08:32:53.981Z,1.75
2023-03-15T08:37:57.085Z,1.75
2023-03-15T08:43:01.222Z,1.92
2023-03-15T08:48:04.021Z,1.80
2023-03-15T08:53:06.739Z,3.90
2023-03-15T08:58:12.831Z,1.70
2023-03-15T09:03:16.616Z,1.65
2023-03-15T09:08:21.429Z,1.40
2023-03-15T09:13:26.909Z,1.15
2023-03-15T09:18:29.829Z,1.40
2023-03-15T09:23:32.548Z,0.70
2023-03-15T09:28:36.622Z,1.00
2023-03-15T09:33:39.458Z,0.90
2023-03-15T09:38:43.805Z,0.60
2023-03-15T09:44:12.692Z,1.20
2023-03-15T09:49:21.245Z,0.82
2023-03-15T09:54:29.257Z,0.90
2023-03-15T09:59:35.723Z,1.42
2023-03-15T10:04:40.631Z,1.02
2023-03-15T10:09:44.277Z,1.17
2023-03-15T10:15:02.822Z,1.23
2023-03-15T10:20:12.034Z,1.73
2023-03-15T10:25:19.397Z,1.02
2023-03-15T10:30:25.786Z,1.38
2023-03-15T10:35:28.669Z,1.00
2023-03-15T10:40:43.904Z,1.20
2023-03-15T10:46:00.116Z,1.10
2023-03-15T10:51:06.859Z,0.93
2023-03-15T10:56:25.814Z,0.90
2023-03-15T11:01:34.596Z,0.73
2023-03-15T11:06:42.800Z,0.60
2023-03-15T11:11:54.591Z,0.68
2023-03-15T11:17:00.856Z,1.10
2023-03-15T11:22:04.052Z,0.80
2023-03-15T11:27:13.883Z,0.70
2023-03-15T11:32:21.811Z,0.68
2023-03-15T11:37:29.284Z,0.77
2023-03-15T11:42:36.694Z,0.90
2023-03-15T11:47:48.464Z,1.25
2023-03-15T11:52:52.736Z,0.70
2023-03-15T11:57:57.865Z,1.00
2023-03-15T12:03:35.307Z,0.73
2023-03-15T12:08:46.252Z,0.80
2023-03-15T12:14:05.348Z,1.10
2023-03-15T12:19:16.192Z,1.08
2023-03-15T12:24:24.962Z,1.13
2023-03-15T12:29:30.098Z,0.90
2023-03-15T12:34:46.913Z,0.77
2023-03-15T12:39:52.474Z,1.00
2023-03-15T12:44:55.255Z,0.98
2023-03-15T12:50:38.215Z,0.80
2023-03-15T12:55:41.935Z,0.55
2023-03-15T13:00:45.798Z,0.60
2023-03-15T13:06:03.927Z,0.73
2023-03-15T13:11:21.256Z,1.10
2023-03-15T13:16:35.545Z,0.98
2023-03-15T13:21:52.452Z,0.88
2023-03-15T13:26:59.791Z,1.20
2023-03-15T13:32:09.850Z,1.10
2023-03-15T13:37:17.053Z,1.08
2023-03-15T13:42:23.866Z,1.38
2023-03-15T13:47:27.455Z,1.23
2023-03-15T13:52:31.586Z,1.52
2023-03-15T13:57:34.984Z,1.20
2023-03-15T14:02:45.586Z,1.23
2023-03-15T14:07:51.142Z,1.40
2023-03-15T14:12:55.327Z,1.10
2023-03-15T14:18:02.992Z,0.82
2023-03-15T14:23:12.345Z,0.93
2023-03-15T14:28:17.275Z,1.90
2023-03-15T14:33:28.447Z,1.00
2023-03-15T14:38:37.603Z,1.27
2023-03-15T14:43:40.388Z,1.27
2023-03-15T14:48:43.460Z,1.30
2023-03-15T14:53:50.003Z,1.05
2023-03-15T14:58:54.138Z,1.10
2023-03-15T15:03:59.742Z,1.38
2023-03-15T15:09:06.012Z,1.17
2023-03-15T15:14:13.865Z,1.23
2023-03-15T15:19:16.884Z,1.55
2023-03-15T15:24:23.298Z,1.42
2023-03-15T15:29:25.996Z,1.10
2023-03-15T15:34:29.192Z,1.33
2023-03-15T15:39:33.341Z,1.35
2023-03-15T15:44:36.196Z,0.98
2023-03-15T15:49:41.351Z,1.08
2023-03-15T15:54:47.735Z,1.00
2023-03-15T15:59:50.491Z,1.63
2023-03-15T16:04:54.897Z,1.38
2023-03-15T16:10:00.717Z,1.20
2023-03-15T16:15:03.736Z,1.40
2023-03-15T16:20:09.118Z,1.67
2023-03-15T16:25:20.249Z,1.13
2023-03-15T16:30:24.870Z,1.13
2023-03-15T16:35:32.386Z,2.38
2023-03-15T16:40:42.131Z,1.10
2023-03-15T16:45:44.895Z,1.60
2023-03-15T16:50:48.203Z,1.63
2023-03-15T16:55:52.358Z,1.23
2023-03-15T17:00:55.974Z,1.73
2023-03-15T17:05:58.804Z,1.60
2023-03-15T17:11:02.899Z,1.40
2023-03-15T17:16:06.590Z,1.27
2023-03-15T17:21:12.895Z,1.33
2023-03-15T17:26:20.385Z,1.67
2023-03-15T17:31:25.568Z,1.80
2023-03-15T17:36:33.893Z,1.30
2023-03-15T17:41:42.558Z,1.33
2023-03-15T17:46:45.381Z,1.10
2023-03-15T17:51:48.235Z,1.55
2023-03-15T17:56:52.492Z,1.52
2023-03-15T18:01:55.313Z,1.88
2023-03-15T18:06:58.061Z,1.73
2023-03-15T18:12:02.286Z,1.92
2023-03-15T18:17:05.278Z,2.13
2023-03-15T18:22:08.052Z,1.98
2023-03-15T18:27:12.877Z,1.63
2023-03-15T18:32:15.686Z,2.03
2023-03-15T18:37:18.551Z,1.90
2023-03-15T18:42:22.638Z,1.70
2023-03-15T18:47:25.481Z,1.60
2023-03-15T18:52:28.429Z,1.98
2023-03-15T18:57:32.590Z,1.85
2023-03-15T19:02:35.352Z,1.95
2023-03-15T19:07:38.599Z,2.70
2023-03-15T19:12:44.787Z,2.10
2023-03-15T19:17:49.386Z,2.13
2023-03-15T19:22:53.230Z,2.63
2023-03-15T19:27:57.966Z,1.77
2023-03-15T19:33:01.081Z,2.08
2023-03-15T19:38:04.097Z,2.25
2023-03-15T19:43:10.170Z,2.22
2023-03-15T19:48:14.774Z,3.40
2023-03-15T19:53:19.120Z,3.22
2023-03-15T19:58:23.459Z,2.70
2023-03-15T20:03:26.692Z,2.50
2023-03-15T20:08:29.438Z,3.05
2023-03-15T20:13:33.791Z,3.25
2023-03-15T20:18:36.518Z,2.80
2023-03-15T20:23:39.451Z,2.83
2023-03-15T20:28:45.106Z,2.85
2023-03-15T20:33:50.683Z,2.97
2023-03-15T20:38:53.770Z,2.80
2023-03-15T20:43:58.345Z,2.58
2023-03-15T20:49:01.159Z,3.33
2023-03-15T20:54:07.049Z,2.88
2023-03-15T20:59:12.121Z,4.60
2023-03-15T21:04:16.049Z,3.70
2023-03-15T21:09:18.929Z,3.28
2023-03-15T21:14:23.058Z,4.10
2023-03-15T21:19:25.820Z,6.60
2023-03-15T21:24:31.885Z,4.38
2023-03-15T21:29:36.226Z,3.15
2023-03-15T21:34:39.207Z,2.95
2023-03-15T21:39:42.015Z,4.07
2023-03-15T21:44:46.150Z,6.90
2023-03-15T21:49:49.045Z,3.38
2023-03-15T21:54:51.778Z,3.88
2023-03-15T21:59:55.926Z,3.40
2023-03-15T22:04:58.904Z,3.78
2023-03-15T22:10:01.733Z,2.60
2023-03-15T22:15:07.604Z,2.55
2023-03-15T22:20:16.379Z,2.47
2023-03-15T22:25:19.269Z,2.92
2023-03-15T22:30:24.071Z,2.60
2023-03-15T22:35:27.087Z,2.88
2023-03-15T22:40:29.895Z,2.20
2023-03-15T22:45:34.407Z,2.58
2023-03-15T22:50:37.110Z,2.40
2023-03-15T22:55:39.813Z,2.47
2023-03-15T23:00:44.974Z,2.40
2023-03-15T23:05:48.105Z,2.22
2023-03-15T23:10:51.306Z,2.50
2023-03-15T23:15:55.481Z,2.40
2023-03-15T23:21:05.401Z,2.38
2023-03-15T23:26:08.198Z,2.15
2023-03-15T23:31:12.302Z,2.50
2023-03-15T23:36:15.381Z,2.35
2023-03-15T23:41:18.173Z,2.80
2023-03-15T23:46:36.028Z,2.58
2023-03-15T23:51:39.061Z,2.58
2023-03-15T23:56:41.763Z,2.25
